createdAt,value
2018-07-21T00:02:12.467Z,16.40
2018-07-21T00:04:41.857Z,16.30
2018-07-21T00:07:11.134Z,16.30
2018-07-21T00:09:40.454Z,16.30
2018-07-21T00:14:38.126Z,16.30
2018-07-21T00:19:35.982Z,16.20
2018-07-21T00:22:05.205Z,16.20
2018-07-21T00:24:34.274Z,16.20
2018-07-21T00:27:03.602Z,16.10
2018-07-21T00:29:32.685Z,16.20
2018-07-21T00:32:01.981Z,16.10
2018-07-21T00:34:31.198Z,16.10
2018-07-21T00:37:00.593Z,16.20
2018-07-21T00:39:29.745Z,16.20
2018-07-21T00:41:58.993Z,16.10
2018-07-21T00:44:28.286Z,16.20
2018-07-21T00:46:57.555Z,16.20
2018-07-21T00:49:26.690Z,16.10
2018-07-21T00:51:55.953Z,16.20
2018-07-21T00:54:25.074Z,16.10
2018-07-21T00:56:54.370Z,16.10
2018-07-21T00:59:23.548Z,16.10
2018-07-21T01:01:52.865Z,16.10
2018-07-21T01:04:22.133Z,16.00
2018-07-21T01:06:51.461Z,16.00
2018-07-21T01:09:20.735Z,16.00
2018-07-21T01:11:50.066Z,16.00
2018-07-21T01:14:19.448Z,16.00
2018-07-21T01:16:48.753Z,16.10
2018-07-21T01:19:17.934Z,16.10
2018-07-21T01:21:47.054Z,16.10
2018-07-21T01:24:16.329Z,16.10
2018-07-21T01:26:45.431Z,16.10
2018-07-21T01:29:14.517Z,16.10
2018-07-21T01:31:43.633Z,16.10
2018-07-21T01:34:12.833Z,16.20
2018-07-21T01:36:41.998Z,16.20
2018-07-21T01:39:12.099Z,16.10
2018-07-21T01:41:41.381Z,16.10
2018-07-21T01:44:10.757Z,16.20
2018-07-21T01:46:40.019Z,16.20
2018-07-21T01:49:09.130Z,16.20
2018-07-21T01:51:38.161Z,16.20
2018-07-21T01:54:07.433Z,16.20
2018-07-21T01:56:36.703Z,16.30
2018-07-21T01:59:05.917Z,16.30
2018-07-21T02:01:34.990Z,16.30
2018-07-21T02:04:04.114Z,16.30
2018-07-21T02:06:33.277Z,16.30
2018-07-21T02:09:02.437Z,16.30
2018-07-21T02:11:31.675Z,16.30
2018-07-21T02:14:00.995Z,16.50
2018-07-21T02:16:30.166Z,16.40
2018-07-21T02:18:59.277Z,16.40
2018-07-21T02:21:28.576Z,16.30
2018-07-21T02:23:57.549Z,16.30
2018-07-21T02:26:26.661Z,16.30
2018-07-21T02:28:55.738Z,16.30
2018-07-21T02:31:24.858Z,16.30
2018-07-21T02:33:54.153Z,16.30
2018-07-21T02:36:23.559Z,16.30
2018-07-21T02:38:52.958Z,16.30
2018-07-21T02:41:22.686Z,16.30
2018-07-21T02:43:51.950Z,16.30
2018-07-21T02:46:21.058Z,16.30
2018-07-21T02:48:50.262Z,16.30
2018-07-21T02:51:19.640Z,16.40
2018-07-21T02:53:48.850Z,16.30
2018-07-21T02:58:46.501Z,16.40
2018-07-21T03:01:15.603Z,16.40
2018-07-21T03:03:44.612Z,16.40
2018-07-21T03:06:13.837Z,16.50
2018-07-21T03:08:42.989Z,16.50
2018-07-21T03:11:12.107Z,16.50
2018-07-21T03:13:41.487Z,16.50
2018-07-21T03:16:10.810Z,16.50
2018-07-21T03:18:40.179Z,16.50
2018-07-21T03:21:09.404Z,16.50
2018-07-21T03:23:38.573Z,16.40
2018-07-21T03:26:07.898Z,16.40
2018-07-21T03:28:37.198Z,16.50
2018-07-21T03:31:06.350Z,16.60
2018-07-21T03:33:35.483Z,16.60
2018-07-21T03:36:04.541Z,16.70
2018-07-21T03:38:33.674Z,16.60
2018-07-21T03:41:02.843Z,16.70
2018-07-21T03:46:00.749Z,16.80
2018-07-21T03:48:30.026Z,16.70
2018-07-21T03:50:59.148Z,16.70
2018-07-21T03:53:28.418Z,16.80
2018-07-21T03:55:57.636Z,16.80
2018-07-21T03:58:26.806Z,16.80
2018-07-21T04:00:55.942Z,16.80
2018-07-21T04:03:25.225Z,16.80
2018-07-21T04:05:54.309Z,16.80
2018-07-21T04:08:23.529Z,16.80
2018-07-21T04:10:52.793Z,16.80
2018-07-21T04:13:21.901Z,16.80
2018-07-21T04:15:50.981Z,16.80
2018-07-21T04:18:19.994Z,16.80
2018-07-21T04:20:49.064Z,16.80
2018-07-21T04:23:18.257Z,16.80
2018-07-21T04:25:47.353Z,16.80
2018-07-21T04:28:16.474Z,16.90
2018-07-21T04:30:45.684Z,16.90
2018-07-21T04:33:14.851Z,16.90
2018-07-21T04:35:44.066Z,16.80
2018-07-21T04:38:13.137Z,16.80
2018-07-21T04:40:42.361Z,16.80
2018-07-21T04:43:11.464Z,16.90
2018-07-21T04:45:40.859Z,16.80
2018-07-21T04:48:10.161Z,16.80
2018-07-21T04:50:39.325Z,16.80
2018-07-21T04:53:08.673Z,16.80
2018-07-21T04:55:37.941Z,16.80
2018-07-21T04:58:07.037Z,16.90
2018-07-21T05:00:36.422Z,16.90
2018-07-21T05:03:05.557Z,16.90
2018-07-21T05:05:35.009Z,16.90
2018-07-21T05:08:04.475Z,16.90
2018-07-21T05:10:33.921Z,16.90
2018-07-21T05:13:03.038Z,17.00
2018-07-21T05:15:32.127Z,16.90
2018-07-21T05:18:01.428Z,16.80
2018-07-21T05:20:30.733Z,16.80
2018-07-21T05:22:59.906Z,16.80
2018-07-21T05:25:29.035Z,16.90
2018-07-21T05:27:58.192Z,16.80
2018-07-21T05:30:27.574Z,16.90
2018-07-21T05:32:56.891Z,16.90
2018-07-21T05:35:26.113Z,16.80
2018-07-21T05:37:55.378Z,16.80
2018-07-21T05:40:24.510Z,16.90
2018-07-21T05:42:53.936Z,17.00
2018-07-21T05:45:23.074Z,17.00
2018-07-21T05:47:52.198Z,17.10
2018-07-21T05:50:23.798Z,17.20
2018-07-21T05:52:53.066Z,17.30
2018-07-21T05:55:22.230Z,17.30
2018-07-21T05:57:51.337Z,17.30
2018-07-21T06:00:20.615Z,17.30
2018-07-21T06:02:49.908Z,17.30
2018-07-21T06:05:18.939Z,17.30
2018-07-21T06:07:48.330Z,17.30
2018-07-21T06:10:17.546Z,17.30
2018-07-21T06:12:46.758Z,17.30
2018-07-21T06:15:16.013Z,17.30
2018-07-21T06:17:45.193Z,17.30
2018-07-21T06:20:14.415Z,17.20
2018-07-21T06:22:43.686Z,17.20
2018-07-21T06:25:12.993Z,17.10
2018-07-21T06:27:42.213Z,17.00
2018-07-21T06:30:11.335Z,16.90
2018-07-21T06:32:40.561Z,16.90
2018-07-21T06:35:09.670Z,16.90
2018-07-21T06:37:38.889Z,16.80
2018-07-21T06:40:08.202Z,16.80
2018-07-21T06:42:37.378Z,16.90
2018-07-21T06:45:07.242Z,16.90
2018-07-21T06:47:36.574Z,16.90
2018-07-21T06:50:06.611Z,16.90
2018-07-21T06:52:36.707Z,16.90
2018-07-21T06:55:06.106Z,16.90
2018-07-21T06:57:35.281Z,16.90
2018-07-21T07:00:04.829Z,16.90
2018-07-21T07:02:34.046Z,16.90
2018-07-21T07:05:03.423Z,16.80
2018-07-21T07:07:32.742Z,16.80
2018-07-21T07:10:02.120Z,16.70
2018-07-21T07:12:31.430Z,16.70
2018-07-21T07:15:00.887Z,16.70
2018-07-21T07:17:30.131Z,16.70
2018-07-21T07:19:59.334Z,16.70
2018-07-21T07:22:28.702Z,16.70
2018-07-21T07:24:57.820Z,16.70
2018-07-21T07:27:26.966Z,16.70
2018-07-21T07:29:56.232Z,16.60
2018-07-21T07:32:25.742Z,16.60
2018-07-21T07:34:55.106Z,16.60
2018-07-21T07:37:24.629Z,16.60
2018-07-21T07:39:54.198Z,16.60
2018-07-21T07:42:23.426Z,16.60
2018-07-21T07:44:52.805Z,16.60
2018-07-21T07:47:22.215Z,16.60
2018-07-21T07:49:51.514Z,16.60
2018-07-21T07:52:20.707Z,16.60
2018-07-21T07:54:50.035Z,16.60
2018-07-21T07:57:19.238Z,16.60
2018-07-21T07:59:48.632Z,16.60
2018-07-21T08:02:17.922Z,16.60
2018-07-21T08:04:47.222Z,16.50
2018-07-21T08:07:16.401Z,16.50
2018-07-21T08:09:45.586Z,16.50
2018-07-21T08:12:14.754Z,16.40
2018-07-21T08:14:44.010Z,16.40
2018-07-21T08:17:13.194Z,16.40
2018-07-21T08:19:42.386Z,16.40
2018-07-21T08:22:11.502Z,16.30
2018-07-21T08:24:40.902Z,16.30
2018-07-21T08:27:10.261Z,16.30
2018-07-21T08:29:39.398Z,16.30
2018-07-21T08:32:08.557Z,16.20
2018-07-21T08:34:37.890Z,16.20
2018-07-21T08:37:07.155Z,16.20
2018-07-21T08:39:36.318Z,16.10
2018-07-21T08:42:05.573Z,16.10
2018-07-21T08:44:34.753Z,16.10
2018-07-21T08:47:03.870Z,16.00
2018-07-21T08:49:33.038Z,16.00
2018-07-21T08:52:02.153Z,16.10
2018-07-21T08:54:31.333Z,16.10
2018-07-21T08:57:00.564Z,16.10
2018-07-21T08:59:29.870Z,16.10
2018-07-21T09:01:59.222Z,16.20
2018-07-21T09:04:28.458Z,16.20
2018-07-21T09:06:57.725Z,16.30
2018-07-21T09:09:26.758Z,16.30
2018-07-21T09:11:55.909Z,16.40
2018-07-21T09:14:25.238Z,16.50
2018-07-21T09:16:54.611Z,16.50
2018-07-21T09:19:24.044Z,16.50
2018-07-21T09:21:53.212Z,16.50
2018-07-21T09:24:22.335Z,16.40
2018-07-21T09:26:51.554Z,16.40
2018-07-21T09:29:20.798Z,16.40
2018-07-21T09:31:50.023Z,16.40
2018-07-21T09:34:19.191Z,16.40
2018-07-21T09:36:48.309Z,16.40
2018-07-21T09:39:17.378Z,16.40
2018-07-21T09:41:46.697Z,16.40
2018-07-21T09:44:15.997Z,16.60
2018-07-21T09:46:45.107Z,16.40
2018-07-21T09:49:14.421Z,16.50
2018-07-21T09:51:43.565Z,16.60
2018-07-21T09:54:12.806Z,16.60
2018-07-21T09:56:42.066Z,16.60
2018-07-21T09:59:11.286Z,16.60
2018-07-21T10:01:40.605Z,16.60
2018-07-21T10:04:09.989Z,16.60
2018-07-21T10:06:39.286Z,16.60
2018-07-21T10:09:10.208Z,16.60
2018-07-21T10:11:39.313Z,16.50
2018-07-21T10:14:08.845Z,16.50
2018-07-21T10:16:37.914Z,16.50
2018-07-21T10:19:07.078Z,16.50
2018-07-21T10:21:36.309Z,16.50
2018-07-21T10:24:10.397Z,16.60
2018-07-21T10:26:45.088Z,16.60
2018-07-21T10:29:14.957Z,16.50
2018-07-21T10:31:44.738Z,16.70
2018-07-21T10:34:13.978Z,16.70
2018-07-21T10:36:43.259Z,16.60
2018-07-21T10:39:14.077Z,16.60
2018-07-21T10:41:43.403Z,16.60
2018-07-21T10:44:12.497Z,16.60
2018-07-21T10:46:41.757Z,16.60
2018-07-21T10:49:11.084Z,16.60
2018-07-21T10:51:40.469Z,16.60
2018-07-21T10:54:09.913Z,16.70
2018-07-21T10:56:40.141Z,16.80
2018-07-21T10:59:09.405Z,16.80
2018-07-21T11:01:38.524Z,16.90
2018-07-21T11:04:07.790Z,16.90
2018-07-21T11:06:36.994Z,17.00
2018-07-21T11:09:08.686Z,17.00
2018-07-21T11:11:37.839Z,17.00
2018-07-21T11:14:06.945Z,16.90
2018-07-21T11:16:36.206Z,16.80
2018-07-21T11:19:05.405Z,16.90
2018-07-21T11:21:34.637Z,17.10
2018-07-21T11:24:03.945Z,17.20
2018-07-21T11:26:33.227Z,17.30
2018-07-21T11:29:02.264Z,17.30
2018-07-21T11:31:31.494Z,17.40
2018-07-21T11:34:00.830Z,17.50
2018-07-21T11:36:30.036Z,17.50
2018-07-21T11:38:59.323Z,17.30
2018-07-21T11:41:28.539Z,17.30
2018-07-21T11:43:57.967Z,17.50
2018-07-21T11:46:27.289Z,17.60
2018-07-21T11:48:56.410Z,17.70
2018-07-21T11:51:25.503Z,17.70
2018-07-21T11:53:55.064Z,17.80
2018-07-21T11:56:24.197Z,17.90
2018-07-21T11:58:53.383Z,17.90
2018-07-21T12:01:22.697Z,18.00
2018-07-21T12:03:51.887Z,18.00
2018-07-21T12:06:21.216Z,18.00
2018-07-21T12:08:50.362Z,17.90
2018-07-21T12:13:48.401Z,17.90
2018-07-21T12:16:17.755Z,17.80
2018-07-21T12:18:47.089Z,17.80
2018-07-21T12:21:16.346Z,17.80
2018-07-21T12:23:45.661Z,17.90
2018-07-21T12:26:14.966Z,17.90
2018-07-21T12:28:44.268Z,18.10
2018-07-21T12:31:13.574Z,18.00
2018-07-21T12:33:42.798Z,18.10
2018-07-21T12:36:12.170Z,18.30
2018-07-21T12:38:41.437Z,18.20
2018-07-21T12:41:10.699Z,18.20
2018-07-21T12:43:40.069Z,18.20
2018-07-21T12:46:09.241Z,18.10
2018-07-21T12:48:38.575Z,18.20
2018-07-21T12:51:07.937Z,18.20
2018-07-21T12:53:37.166Z,18.20
2018-07-21T12:56:06.435Z,18.30
2018-07-21T12:58:35.646Z,18.30
2018-07-21T13:01:04.869Z,18.50
2018-07-21T13:03:34.019Z,18.60
2018-07-21T13:06:03.357Z,18.60
2018-07-21T13:08:32.542Z,18.50
2018-07-21T13:11:01.846Z,18.40
2018-07-21T13:13:31.014Z,18.50
2018-07-21T13:16:00.355Z,18.70
2018-07-21T13:18:29.610Z,18.70
2018-07-21T13:20:58.729Z,18.80
2018-07-21T13:23:27.913Z,18.70
2018-07-21T13:25:57.133Z,18.90
2018-07-21T13:28:26.385Z,19.10
2018-07-21T13:30:55.605Z,19.20
2018-07-21T13:33:24.782Z,19.20
2018-07-21T13:38:22.562Z,19.10
2018-07-21T13:40:51.774Z,19.10
2018-07-21T13:43:20.890Z,19.00
2018-07-21T13:45:49.945Z,18.90
2018-07-21T13:50:47.822Z,19.10
2018-07-21T13:53:16.956Z,19.10
2018-07-21T13:55:46.045Z,19.60
2018-07-21T13:58:15.257Z,20.00
2018-07-21T14:00:44.409Z,20.20
2018-07-21T14:05:42.446Z,20.50
2018-07-21T14:08:11.617Z,20.50
2018-07-21T14:10:40.606Z,20.60
2018-07-21T14:13:09.678Z,20.70
2018-07-21T14:15:38.951Z,20.80
2018-07-21T14:18:08.436Z,20.90
2018-07-21T14:20:37.696Z,21.00
2018-07-21T14:23:06.874Z,21.30
2018-07-21T14:25:36.099Z,21.70
2018-07-21T14:28:05.470Z,22.10
2018-07-21T14:30:34.889Z,22.60
2018-07-21T14:33:04.000Z,22.70
2018-07-21T14:35:33.084Z,23.00
2018-07-21T14:38:02.275Z,22.80
2018-07-21T14:40:31.355Z,22.50
2018-07-21T14:43:00.362Z,22.20
2018-07-21T14:45:29.430Z,22.20
2018-07-21T14:47:58.590Z,22.20
2018-07-21T14:50:27.751Z,22.20
2018-07-21T14:52:57.221Z,22.20
2018-07-21T14:55:26.401Z,22.20
2018-07-21T14:57:55.534Z,22.30
2018-07-21T15:00:24.730Z,22.30
2018-07-21T15:02:53.846Z,22.40
2018-07-21T15:05:23.162Z,22.40
2018-07-21T15:07:52.434Z,22.30
2018-07-21T15:10:21.508Z,22.50
2018-07-21T15:12:50.642Z,22.30
2018-07-21T15:15:19.926Z,22.40
2018-07-21T15:17:49.235Z,22.60
2018-07-21T15:20:18.427Z,22.80
2018-07-21T15:22:47.634Z,23.00
2018-07-21T15:25:16.810Z,23.10
2018-07-21T15:27:45.975Z,23.00
2018-07-21T15:30:15.207Z,22.60
2018-07-21T15:32:44.489Z,22.60
2018-07-21T15:35:13.606Z,22.60
2018-07-21T15:37:42.884Z,22.40
2018-07-21T15:42:40.659Z,22.40
2018-07-21T15:45:09.854Z,22.30
2018-07-21T15:47:38.964Z,22.30
2018-07-21T15:50:08.253Z,22.40
2018-07-21T15:52:37.437Z,22.30
2018-07-21T15:55:06.754Z,22.20
2018-07-21T15:57:35.943Z,22.00
2018-07-21T16:00:05.565Z,21.90
2018-07-21T16:02:34.871Z,21.70
2018-07-21T16:05:04.294Z,21.40
2018-07-21T16:07:33.597Z,21.40
2018-07-21T16:10:03.002Z,21.40
2018-07-21T16:12:32.167Z,21.30
2018-07-21T16:15:03.868Z,21.20
2018-07-21T16:17:30.643Z,21.20
2018-07-21T16:19:59.849Z,21.20
2018-07-21T16:22:29.071Z,21.20
2018-07-21T16:24:58.358Z,21.20
2018-07-21T16:27:27.562Z,20.90
2018-07-21T16:29:56.618Z,20.70
2018-07-21T16:32:25.734Z,20.60
2018-07-21T16:34:55.028Z,20.60
2018-07-21T16:37:24.459Z,20.70
2018-07-21T16:39:53.925Z,20.70
2018-07-21T16:42:23.046Z,20.70
2018-07-21T16:44:52.218Z,20.70
2018-07-21T16:47:21.287Z,20.70
2018-07-21T16:52:19.188Z,20.60
2018-07-21T16:54:48.394Z,20.50
2018-07-21T16:57:17.799Z,20.50
2018-07-21T16:59:47.186Z,20.50
2018-07-21T17:02:16.402Z,20.40
2018-07-21T17:04:45.762Z,20.40
2018-07-21T17:07:15.002Z,20.40
2018-07-21T17:09:44.294Z,20.40
2018-07-21T17:12:13.353Z,20.50
2018-07-21T17:17:11.364Z,20.30
2018-07-21T17:19:40.675Z,20.20
2018-07-21T17:22:09.968Z,20.20
2018-07-21T17:24:39.162Z,20.10
2018-07-21T17:27:08.257Z,19.90
2018-07-21T17:29:37.516Z,19.80
2018-07-21T17:32:06.938Z,19.80
2018-07-21T17:34:36.159Z,19.80
2018-07-21T17:37:05.419Z,19.70
2018-07-21T17:39:34.654Z,19.60
2018-07-21T17:42:03.961Z,19.50
2018-07-21T17:44:33.251Z,19.60
2018-07-21T17:47:02.541Z,19.60
2018-07-21T17:49:31.718Z,19.60
2018-07-21T17:52:00.929Z,19.50
2018-07-21T17:54:30.132Z,19.50
2018-07-21T17:56:59.329Z,19.40
2018-07-21T17:59:28.779Z,19.40
2018-07-21T18:01:58.315Z,19.40
2018-07-21T18:04:27.610Z,19.30
2018-07-21T18:06:56.841Z,19.30
2018-07-21T18:09:26.027Z,19.20
2018-07-21T18:11:55.437Z,19.10
2018-07-21T18:14:24.726Z,19.00
2018-07-21T18:16:54.025Z,18.80
2018-07-21T18:19:23.440Z,18.60
2018-07-21T18:21:52.723Z,18.50
2018-07-21T18:24:21.921Z,18.40
2018-07-21T18:26:51.193Z,18.30
2018-07-21T18:29:20.454Z,18.20
2018-07-21T18:31:49.729Z,18.20
2018-07-21T18:34:19.130Z,18.10
2018-07-21T18:36:48.642Z,18.00
2018-07-21T18:39:17.806Z,17.90
2018-07-21T18:41:47.136Z,17.80
2018-07-21T18:44:16.298Z,17.70
2018-07-21T18:46:45.520Z,17.60
2018-07-21T18:49:14.722Z,17.50
2018-07-21T18:51:43.982Z,17.50
2018-07-21T18:54:13.242Z,17.40
2018-07-21T18:56:42.528Z,17.30
2018-07-21T18:59:11.893Z,17.20
2018-07-21T19:01:40.997Z,17.20
2018-07-21T19:04:10.279Z,17.20
2018-07-21T19:06:39.387Z,17.20
2018-07-21T19:09:09.622Z,17.10
2018-07-21T19:11:38.765Z,17.10
2018-07-21T19:14:07.969Z,17.00
2018-07-21T19:16:41.277Z,17.00
2018-07-21T19:19:10.476Z,17.00
2018-07-21T19:21:39.441Z,17.00
2018-07-21T19:24:08.677Z,17.00
2018-07-21T19:26:43.069Z,16.90
2018-07-21T19:29:12.505Z,16.90
2018-07-21T19:31:45.880Z,17.00
2018-07-21T19:34:15.195Z,16.90
2018-07-21T19:36:44.453Z,16.90
2018-07-21T19:39:13.665Z,16.90
2018-07-21T19:41:47.930Z,16.80
2018-07-21T19:44:17.277Z,16.80
2018-07-21T19:46:46.715Z,16.80
2018-07-21T19:49:16.041Z,16.70
2018-07-21T19:51:45.395Z,16.70
2018-07-21T19:54:14.658Z,16.80
2018-07-21T19:56:44.737Z,16.70
2018-07-21T19:59:13.961Z,16.80
2018-07-21T20:01:43.094Z,16.70
2018-07-21T20:04:12.424Z,16.70
2018-07-21T20:06:41.639Z,16.70
2018-07-21T20:09:11.326Z,16.70
2018-07-21T20:11:41.370Z,16.60
2018-07-21T20:14:10.663Z,16.60
2018-07-21T20:16:39.973Z,16.60
2018-07-21T20:19:09.236Z,16.50
2018-07-21T20:21:38.418Z,16.50
2018-07-21T20:24:07.574Z,16.50
2018-07-21T20:26:36.892Z,16.40
2018-07-21T20:29:06.014Z,16.40
2018-07-21T20:31:35.319Z,16.40
2018-07-21T20:34:04.482Z,16.40
2018-07-21T20:36:33.707Z,16.40
2018-07-21T20:39:02.949Z,16.40
2018-07-21T20:41:32.208Z,16.40
2018-07-21T20:44:01.502Z,16.40
2018-07-21T20:46:30.578Z,16.30
2018-07-21T20:48:59.802Z,16.30
2018-07-21T20:51:29.084Z,16.30
2018-07-21T20:53:58.402Z,16.30
2018-07-21T20:56:27.561Z,16.30
2018-07-21T20:58:56.657Z,16.30
2018-07-21T21:01:25.981Z,16.20
2018-07-21T21:03:55.373Z,16.30
2018-07-21T21:06:24.702Z,16.20
2018-07-21T21:08:53.959Z,16.30
2018-07-21T21:11:23.279Z,16.30
2018-07-21T21:13:52.409Z,16.30
2018-07-21T21:16:21.666Z,16.30
2018-07-21T21:18:50.746Z,16.30
2018-07-21T21:21:20.066Z,16.20
2018-07-21T21:23:49.270Z,16.20
2018-07-21T21:26:18.533Z,16.20
2018-07-21T21:28:47.674Z,16.20
2018-07-21T21:31:17.036Z,16.20
2018-07-21T21:33:46.192Z,16.20
2018-07-21T21:36:15.480Z,16.20
2018-07-21T21:38:44.635Z,16.20
2018-07-21T21:41:13.920Z,16.20
2018-07-21T21:43:43.183Z,16.20
2018-07-21T21:46:13.611Z,16.20
2018-07-21T21:48:43.074Z,16.10
2018-07-21T21:51:12.172Z,16.10
2018-07-21T21:53:41.655Z,16.10
2018-07-21T21:58:39.559Z,16.00
2018-07-21T22:01:11.073Z,15.90
2018-07-21T22:03:40.270Z,15.90
2018-07-21T22:06:09.597Z,15.90
2018-07-21T22:08:38.807Z,15.90
2018-07-21T22:11:08.103Z,15.80
2018-07-21T22:13:37.393Z,15.90
2018-07-21T22:16:06.574Z,15.80
2018-07-21T22:18:35.996Z,15.80
2018-07-21T22:21:05.364Z,15.80
2018-07-21T22:23:34.418Z,15.80
2018-07-21T22:26:03.595Z,15.80
2018-07-21T22:28:32.846Z,15.80
2018-07-21T22:31:02.106Z,15.80
2018-07-21T22:33:31.354Z,15.80
